De Winton South Calgary Airport

CEH4 · Alberta, Canadá

História da METAR CEH4 · De Winton South Calgary Airport

Abaixo você vê METARs dos últimos dias. Selecione um ano para navegar pelos METARs mais antigos, a partir do ano 2007.

27 de novembro de 2022

Hora Código Clima Temp. Visibilidade Tecto Vento METAR/SPECI
04:00
V
2 °C 10 mi - 230° 230° 10 - 15 kt METAR CYYC 271100Z 23010G15KT 10SM FEW180 02/M09 A2936 RMK AC2 SLP977
03:00
V
2 °C 10 mi - 230° 230° 11 - 18 kt METAR CYYC 271000Z 23011G18KT 10SM FEW170 02/M09 A2939 RMK AC2 SLP985
02:00
V
2 °C 10 mi - 240° 240° 12 - 21 kt METAR CYYC 270900Z 24012G21KT 10SM FEW170 02/M10 A2942 RMK AC1 SLP993
01:19
V
2 °C 10 mi - 220° 220° 15 - 22 kt METAR CYYC 270819Z 22015G22KT 10SM FEW170 02/M11 A2944 RMK AC2 SLP002
01:00
V
3 °C 10 mi - 230° 230° 15 kt METAR CYYC 270800Z 23015KT 10SM FEW170 03/M10 A2945 RMK AC2 PRESFR SLP004
00:17
V
4 °C 10 mi - 260° 260° 15 - 30 kt METAR CYYC 270717Z 26015G30KT 10SM FEW180 SCT210 04/M11 A2948 RMK AC3CI1 PRESFR SLP014
00:00
V
4 °C 10 mi 21.000 ft 250° 250° 10 - 18 kt METAR CYYC 270700Z 25010G18KT 210V280 10SM SCT180 BKN210 04/M10 A2950 RMK AC4CI1 VIRGA SSE SLP022

26 de novembro de 2022

Hora Código Clima Temp. Visibilidade Tecto Vento METAR/SPECI
23:00
V
0 °C 10 mi 15.000 ft 160° 160° 7 kt METAR CYYC 270600Z 16007KT 10SM BKN150 BKN180 BKN210 M00/M08 A2955 RMK AC5AS1CI1 CI TR SLP047
22:00
V
1 °C 10 mi 15.000 ft 200° 200° 4 kt METAR CYYC 270500Z 20004KT 10SM BKN150 01/M09 A2958 RMK AC6 SLP060
21:00
V
1 °C 10 mi 12.000 ft 200° 200° 4 kt METAR CYYC 270400Z 20004KT 10SM BKN120 01/M09 A2963 RMK AC6 SLP079
20:00
V
2 °C 15 mi 18.000 ft 120° 120° 4 kt METAR CYYC 270300Z 12004KT 110V170 15SM BKN180 02/M10 A2967 RMK AS6 SLP094
19:20
V
3 °C 15 mi 21.000 ft Var Var 2 kt METAR CYYC 270220Z VRB02KT 15SM OVC210 03/M10 A2970 RMK CI8 SLP104
19:06
V
2 °C 15 mi 21.000 ft 300° 300° 7 kt METAR CYYC 270206Z 30007KT 15SM OVC210 02/M10 A2969 RMK CI8 SLP103
19:00
V
3 °C 15 mi 21.000 ft 300° 300° 11 kt METAR CYYC 270200Z 30011KT 15SM OVC210 03/M10 A2970 RMK CI8 SLP105
18:00
V
3 °C 15 mi 21.000 ft 260° 260° 8 - 16 kt METAR CYYC 270100Z 26008G16KT 15SM SCT190 BKN210 03/M10 A2972 RMK AC3CI4 SLP108
17:00
V
3 °C 30 mi 16.000 ft 250° 250° 8 kt METAR CYYC 270000Z 25008KT 210V280 30SM FEW053 FEW120 BKN160 OVC210 03/M10 A2976 RMK SC1AC1AC6CI2 SC TR AC TR SLP122
16:00
V
4 °C 30 mi 25.000 ft 260° 260° 12 - 21 kt METAR CYYC 262300Z 26012G21KT 30SM FEW058 FEW160 BKN250 04/M10 A2977 RMK SC1AC1CI6 SC TR SLP126
15:00
V
5 °C 40 mi - 260° 260° 11 - 18 kt METAR CYYC 262200Z 26011G18KT 220V290 40SM FEW064 FEW240 05/M10 A2980 RMK SC1CI2 SC TR SLP132
14:00
V
6 °C 40 mi 24.000 ft 270° 270° 12 - 17 kt METAR CYYC 262100Z 27012G17KT 40SM FEW065 BKN240 06/M11 A2984 RMK SC1CI7 SC TR SLP143
13:00
V
5 °C 40 mi 23.000 ft 260° 260° 10 - 15 kt METAR CYYC 262000Z 26010G15KT 40SM FEW061 BKN230 05/M10 A2987 RMK SC1CI6 SC TR SLP154
12:00
V
4 °C 40 mi 23.000 ft 200° 200° 5 kt METAR CYYC 261900Z 20005KT 160V240 40SM FEW044 BKN230 04/M08 A2989 RMK SC1CI5 SC TR SLP167
11:00
V
2 °C 40 mi - 210° 210° 8 kt METAR CYYC 261800Z 21008KT 40SM FEW050 SCT220 02/M08 A2991 RMK SC1CI3 SC TR SLP174
10:00
V
0 °C 40 mi - 180° 180° 10 kt METAR CYYC 261700Z 18010KT 40SM FEW050 FEW220 M00/M08 A2992 RMK SC1CI1 SC TR CC ASOCTD / FROST PTCHS ON GND SLP181
09:00
V
-3 °C 40 mi - 190° 190° 6 kt METAR CYYC 261600Z 19006KT 40SM FEW050 FEW220 M03/M08 A2994 RMK SC1CI1 SC TR CI TR FROIN SLP190
08:00
V
-4 °C 40 mi - 180° 180° 6 kt METAR CYYC 261500Z 18006KT 40SM FEW050 FEW220 M04/M08 A2994 RMK SC1CI1 SC TR CI TR FROIN SLP190
07:00
V
-4 °C 10 mi - 190° 190° 6 kt METAR CYYC 261400Z 19006KT 10SM FEW050 FEW220 M04/M07 A2995 RMK SC1CI1 SC TR CI TR FROIN / CONTRAILS SLP194
06:00
V
-3 °C 15 mi - 200° 200° 4 kt METAR CYYC 261300Z 20004KT 15SM FEW230 M03/M06 A2994 RMK CI1 CI TR FROIN SLP190
05:00
V
-3 °C 10 mi 21.000 ft 180° 180° 3 kt METAR CYYC 261200Z 18003KT 10SM BKN210 M03/M05 A2994 RMK CI6 FROIN SLP189
04:00
V
-2 °C 10 mi 21.000 ft 210° 210° 4 kt METAR CYYC 261100Z 21004KT 10SM BKN210 M02/M05 A2993 RMK CI5 FROIN SLP184
03:00
V
-1 °C 15 mi - 240° 240° 3 kt METAR CYYC 261000Z 24003KT 210V280 15SM SKC M01/M04 A2993 RMK SLP183
02:00
V
-1 °C 15 mi - 250° 250° 6 kt METAR CYYC 260900Z 25006KT 15SM FEW038 M01/M04 A2992 RMK SC1 SC TR SLP167
01:00
V
-1 °C 15 mi - 210° 210° 6 kt METAR CYYC 260800Z 21006KT 15SM FEW040 M01/M04 A2991 RMK SC1 SC TR SLP164
00:00
V
-1 °C 10 mi - 220° 220° 5 kt METAR CYYC 260700Z 22005KT 10SM SCT040 M01/M03 A2990 RMK SC3 SLP157

25 de novembro de 2022

Hora Código Clima Temp. Visibilidade Tecto Vento METAR/SPECI
23:00
V
0 °C 10 mi - 240° 240° 4 kt METAR CYYC 260600Z 24004KT 200V290 10SM FEW034 SCT050 M00/M03 A2990 RMK SC2SC1 SLP156
22:00
V
1 °C 10 mi 3.500 ft 260° 260° 4 kt METAR CYYC 260500Z 26004KT 10SM BKN035 BKN050 01/M03 A2988 RMK SC5SC1 SLP150
21:00
V
1 °C 7 mi 3.600 ft 260° 260° 4 kt METAR CYYC 260400Z 26004KT 7SM OVC036 01/M04 A2985 RMK SC8 SLP140
20:00
V
1 °C 7 mi 3.800 ft 310° 310° 5 kt METAR CYYC 260300Z 31005KT 7SM OVC038 01/M04 A2985 RMK SC8 SLP137
19:00
V
1 °C 15 mi 3.700 ft 350° 350° 8 kt METAR CYYC 260200Z 35008KT 15SM OVC037 01/M04 A2983 RMK SC8 SLP131
18:00
V
1 °C 15 mi 3.500 ft 340° 340° 10 kt METAR CYYC 260100Z 34010KT 15SM OVC035 01/M03 A2982 RMK SC8 SLP128
17:00
V
0 °C 15 mi 4.100 ft 360° 360° 15 kt METAR CYYC 260000Z 36015KT 15SM FEW016 BKN041 OVC250 00/M02 A2980 RMK SC2SC5CI1 SLP121
16:00
V
1 °C 15 mi 20.000 ft 360° 360° 14 - 23 kt METAR CYYC 252300Z 36014G23KT 15SM SCT013 BKN200 01/M02 A2977 RMK SC3CI4 CC ASOCTD SLP109
15:41
M
1 °C 20 mi 1.300 ft 010° 010° 17 - 26 kt METAR CYYC 252241Z 01017G26KT 20SM BKN013 OVC200 01/M02 A2977 RMK SC6CI2 SLP112
15:00
V
2 °C 20 mi 20.000 ft 010° 010° 23 - 30 kt METAR CYYC 252200Z 01023G30KT 20SM FEW039 BKN200 02/M02 A2975 RMK SC1CI6 SLP102
14:50
V
2 °C 20 mi 20.000 ft 360° 360° 21 - 27 kt SPECI CYYC 252150Z 36021G27KT 20SM FEW039 BKN200 02/M02 A2975 RMK SC1CI6 SLP101
14:00
V
9 °C 20 mi 25.000 ft 320° 320° 24 - 32 kt METAR CYYC 252100Z 32024G32KT 20SM FEW043 BKN250 09/M02 A2972 RMK SC1CI7 SC TR PRESRR SLP085 DENSITY ALT 4000FT
13:00
V
10 °C 20 mi 24.000 ft 290° 290° 11 - 19 kt METAR CYYC 252000Z 29011G19KT 20SM FEW053 FEW080 BKN240 10/M03 A2967 RMK SC1AC1CI7 SC TR AC TR CC ASOCTD SLP064 DENSITY ALT 4200FT
12:00
V
12 °C 20 mi 22.000 ft 260° 260° 18 - 34 kt METAR CYYC 251900Z 26018G34KT 20SM BKN220 12/M04 A2962 RMK CI7 SLP048 DENSITY ALT 4500FT
11:00
V
12 °C 30 mi 23.000 ft 260° 260° 11 - 19 kt METAR CYYC 251800Z 26011G19KT 30SM BKN230 12/M03 A2962 RMK CI7 CC ASOCTD SLP050 DENSITY ALT 4400FT
10:00
V
10 °C 30 mi - 240° 240° 7 kt METAR CYYC 251700Z 24007KT 220V280 30SM FEW061 SCT250 10/M05 A2964 RMK SC1CI4 SC TR CC ASOCTD SLP064 DENSITY ALT 4200FT
09:00
V
11 °C 40 mi - 230° 230° 16 - 24 kt METAR CYYC 251600Z 23016G24KT 40SM FEW066 SCT250 11/M06 A2966 RMK AC1CI4 AC TR CC ASOCTD SLP066 DENSITY ALT 4300FT
08:00
V
11 °C 40 mi - 240° 240° 11 - 20 kt METAR CYYC 251500Z 24011G20KT 40SM FEW070 SCT250 11/M07 A2967 RMK AC1CI3 AC TR SLP073 DENSITY ALT 4300FT
07:00
V
11 °C 15 mi - 230° 230° 12 - 19 kt METAR CYYC 251400Z 23012G19KT 15SM FEW250 11/M06 A2971 RMK CI2 SLP084 DENSITY ALT 4200FT
06:00
V
10 °C 15 mi - 220° 220° 12 - 18 kt METAR CYYC 251300Z 22012G18KT 15SM SKC 10/M06 A2974 RMK SLP097 DENSITY ALT 4100FT
05:00
V
11 °C 15 mi - 230° 230° 11 kt METAR CYYC 251200Z 23011KT 15SM SKC 11/M06 A2978 RMK SLP105 DENSITY ALT 4200FT
04:00
V
12 °C 15 mi - 270° 270° 15 - 22 kt METAR CYYC 251100Z 27015G22KT 15SM FEW250 12/M06 A2980 RMK CI2 SLP109 DENSITY ALT 4200FT
03:00
V
10 °C 15 mi - 230° 230° 8 kt METAR CYYC 251000Z 23008KT 200V280 15SM FEW250 10/M05 A2981 RMK CI2 SLP117 DENSITY ALT 4100FT

Nós e terceiros acompanhamos seu comportamento na internet em nosso site com cookies. Se você continuar, nós assumimos que você concorda com nosso política de cookies.